Time;durP1;ratioP1;P1;durP2;ratioP2;P2;SDS_P1;SDS_P2;PMS_P1;PMS_P2;Temp;Humidity;BMP_temperature;BMP_pressure;BME280_temperature;BME280_humidity;BME280_pressure;Samples;Min_cycle;Max_cycle;Signal;HPM_P1;HPM_P2
2023/05/13 00:00:52;;;;;;;2.13;0.82;;;12.60;99.90;;;;;;4908381;29;20295;-71
2023/05/13 00:03:22;;;;;;;0.60;0.50;;;12.70;99.90;;;;;;4905299;29;20209;-71
2023/05/13 00:05:50;;;;;;;1.25;0.77;;;12.80;99.90;;;;;;4910396;29;20272;-71
2023/05/13 00:08:18;;;;;;;1.45;0.60;;;12.80;99.90;;;;;;4910984;29;20303;-72
2023/05/13 00:10:46;;;;;;;1.08;0.98;;;13.00;99.90;;;;;;4911211;29;20630;-72
2023/05/13 00:13:14;;;;;;;0.93;0.77;;;13.10;99.90;;;;;;4919650;29;20287;-71
2023/05/13 00:15:42;;;;;;;1.23;1.13;;;13.20;99.90;;;;;;4914436;29;20611;-71
2023/05/13 00:18:11;;;;;;;1.00;0.80;;;13.10;99.90;;;;;;4914348;29;20787;-71
2023/05/13 00:20:40;;;;;;;1.25;0.88;;;13.20;99.90;;;;;;4913874;29;20216;-71
2023/05/13 00:23:09;;;;;;;0.68;0.60;;;13.20;99.90;;;;;;4914225;29;20232;-72
2023/05/13 00:25:37;;;;;;;0.60;0.50;;;13.20;99.90;;;;;;4914470;29;20704;-71
2023/05/13 00:28:05;;;;;;;0.60;0.50;;;13.20;99.90;;;;;;4914263;29;20260;-71
2023/05/13 00:30:33;;;;;;;1.42;0.50;;;13.30;99.90;;;;;;4914464;29;20236;-71
2023/05/13 00:33:00;;;;;;;1.10;0.77;;;13.30;99.90;;;;;;4915107;29;20247;-72
2023/05/13 00:35:28;;;;;;;0.68;0.65;;;13.30;99.90;;;;;;4914269;29;20648;-72
2023/05/13 00:37:58;;;;;;;0.70;0.60;;;13.30;99.90;;;;;;4913395;29;20303;-72
2023/05/13 00:40:26;;;;;;;0.65;0.65;;;13.30;99.90;;;;;;4914493;29;20251;-71
2023/05/13 00:42:54;;;;;;;0.82;0.82;;;13.40;99.90;;;;;;4914324;29;20234;-71
2023/05/13 00:45:22;;;;;;;0.80;0.80;;;13.40;99.90;;;;;;4903329;29;20261;-73
2023/05/13 00:47:51;;;;;;;0.70;0.57;;;13.50;99.90;;;;;;4912178;29;20243;-72
2023/05/13 00:50:19;;;;;;;1.25;0.80;;;13.50;99.90;;;;;;4909800;29;20292;-73
2023/05/13 00:52:49;;;;;;;0.90;0.60;;;13.60;99.90;;;;;;4906601;29;20212;-72
2023/05/13 00:55:18;;;;;;;0.60;0.50;;;13.60;99.90;;;;;;4900667;29;20277;-73
2023/05/13 00:57:46;;;;;;;0.73;0.70;;;13.60;99.90;;;;;;4905084;29;20213;-73
2023/05/13 01:00:15;;;;;;;0.70;0.60;;;13.60;99.90;;;;;;4904783;29;20208;-72
2023/05/13 01:02:53;;;;;;;0.82;0.82;;;13.70;99.90;;;;;;4905763;29;20224;-72
2023/05/13 01:05:29;;;;;;;0.60;0.60;;;13.70;99.90;;;;;;4907184;29;20325;-72
2023/05/13 01:08:02;;;;;;;0.73;0.70;;;13.70;99.90;;;;;;4907474;29;20215;-72
2023/05/13 01:10:38;;;;;;;0.60;0.50;;;13.80;99.90;;;;;;4907216;29;20237;-72
2023/05/13 01:13:09;;;;;;;0.57;0.45;;;13.80;99.90;;;;;;4907757;29;20295;-72
2023/05/13 01:15:40;;;;;;;0.73;0.70;;;13.80;99.90;;;;;;4907848;29;20320;-72
2023/05/13 01:18:13;;;;;;;0.98;0.65;;;13.80;99.90;;;;;;4908398;29;20236;-72
2023/05/13 01:20:42;;;;;;;0.68;0.50;;;13.80;99.90;;;;;;4910812;29;20243;-72
2023/05/13 01:23:12;;;;;;;1.05;0.95;;;13.80;99.90;;;;;;4911708;29;20231;-71
2023/05/13 01:25:40;;;;;;;0.60;0.50;;;13.80;99.90;;;;;;4905449;29;20275;-71
2023/05/13 01:28:09;;;;;;;0.80;0.60;;;13.70;99.90;;;;;;4906710;29;20744;-72
2023/05/13 01:30:37;;;;;;;0.60;0.50;;;13.70;99.90;;;;;;4906007;29;20240;-72
2023/05/13 01:33:23;;;;;;;1.45;0.65;;;13.70;99.90;;;;;;4915950;29;20256;-71
2023/05/13 01:35:55;;;;;;;0.88;0.77;;;13.70;99.90;;;;;;4914329;29;20223;-71
2023/05/13 01:38:26;;;;;;;0.75;0.75;;;13.70;99.90;;;;;;4910283;29;20279;-71
2023/05/13 01:40:55;;;;;;;0.57;0.52;;;13.70;99.90;;;;;;4907087;29;20299;-71
2023/05/13 01:43:23;;;;;;;0.60;0.50;;;13.60;99.90;;;;;;4915249;29;20249;-71
2023/05/13 01:45:52;;;;;;;0.60;0.57;;;13.60;99.90;;;;;;4912268;29;20260;-71
2023/05/13 01:48:20;;;;;;;1.35;0.98;;;13.70;99.90;;;;;;4914203;29;20631;-73
2023/05/13 01:50:48;;;;;;;0.70;0.47;;;13.70;99.90;;;;;;4914515;29;20212;-71
2023/05/13 01:53:16;;;;;;;0.82;0.60;;;13.60;99.90;;;;;;4914522;29;20658;-71
2023/05/13 01:55:45;;;;;;;0.70;0.60;;;13.60;99.90;;;;;;4902546;29;20272;-71
2023/05/13 01:58:13;;;;;;;0.60;0.50;;;13.70;99.90;;;;;;4906368;29;20625;-71
2023/05/13 02:00:41;;;;;;;0.90;0.90;;;13.70;99.90;;;;;;4911426;29;20698;-71
2023/05/13 02:03:08;;;;;;;0.80;0.70;;;13.80;99.90;;;;;;4916678;29;20228;-73
2023/05/13 02:05:36;;;;;;;0.70;0.63;;;13.80;99.90;;;;;;4917044;29;20779;-73
2023/05/13 02:08:05;;;;;;;0.70;0.50;;;13.90;99.90;;;;;;4916802;29;20247;-73
2023/05/13 02:10:33;;;;;;;0.80;0.40;;;13.90;99.90;;;;;;4905360;29;20213;-73
2023/05/13 02:13:02;;;;;;;0.55;0.43;;;13.90;99.90;;;;;;4919885;29;20295;-74
2023/05/13 02:15:30;;;;;;;0.60;0.60;;;13.80;99.90;;;;;;4916897;29;20278;-72
2023/05/13 02:17:58;;;;;;;0.60;0.50;;;13.70;99.90;;;;;;4916801;29;20719;-72
2023/05/13 02:20:26;;;;;;;0.70;0.60;;;13.60;99.90;;;;;;4905760;29;20244;-74
2023/05/13 02:22:54;;;;;;;0.98;0.52;;;13.60;99.90;;;;;;4904179;29;20263;-74
2023/05/13 02:25:22;;;;;;;0.60;0.50;;;13.60;99.90;;;;;;4900329;29;20224;-74
2023/05/13 02:27:50;;;;;;;1.00;0.77;;;13.60;99.90;;;;;;4916826;29;20216;-73
2023/05/13 02:30:19;;;;;;;0.80;0.65;;;13.60;99.90;;;;;;4916566;29;20264;-74
2023/05/13 02:32:47;;;;;;;0.60;0.47;;;13.60;99.90;;;;;;4916376;29;20226;-73
2023/05/13 02:35:15;;;;;;;0.60;0.40;;;13.60;99.90;;;;;;4916173;29;20229;-73
2023/05/13 02:37:43;;;;;;;0.60;0.40;;;13.60;99.90;;;;;;4916578;29;20236;-73
2023/05/13 02:40:12;;;;;;;0.60;0.50;;;13.70;99.90;;;;;;4916259;29;20241;-73
2023/05/13 02:42:42;;;;;;;0.60;0.60;;;13.60;99.90;;;;;;4915542;29;20648;-74
2023/05/13 02:45:10;;;;;;;0.57;0.45;;;13.50;99.90;;;;;;4914962;29;20386;-74
2023/05/13 02:47:40;;;;;;;0.60;0.50;;;13.50;99.90;;;;;;4909920;29;20220;-73
2023/05/13 02:50:08;;;;;;;0.60;0.50;;;13.50;99.90;;;;;;4917099;29;20208;-73
2023/05/13 02:52:37;;;;;;;0.70;0.57;;;13.40;99.90;;;;;;4916012;29;20647;-73
2023/05/13 02:55:07;;;;;;;0.75;0.65;;;13.30;99.90;;;;;;4913223;29;20299;-74
2023/05/13 02:57:36;;;;;;;0.60;0.50;;;13.20;99.90;;;;;;4903722;29;20209;-73
2023/05/13 03:00:05;;;;;;;0.60;0.50;;;13.10;99.90;;;;;;4912814;29;20205;-73
2023/05/13 03:02:34;;;;;;;0.85;0.82;;;13.00;99.90;;;;;;4915556;29;20676;-72
2023/05/13 03:05:04;;;;;;;0.60;0.50;;;13.10;99.90;;;;;;4915981;29;20212;-71
2023/05/13 03:07:32;;;;;;;0.73;0.55;;;13.10;99.90;;;;;;4914373;29;20207;-71
2023/05/13 03:10:00;;;;;;;0.70;0.40;;;13.10;99.90;;;;;;4913671;29;20291;-71
2023/05/13 03:12:28;;;;;;;0.70;0.70;;;13.10;99.90;;;;;;4912089;29;20236;-71
2023/05/13 03:14:56;;;;;;;0.60;0.50;;;13.10;99.90;;;;;;4911317;29;20286;-71
2023/05/13 03:17:24;;;;;;;0.60;0.50;;;13.10;99.90;;;;;;4909286;29;20216;-71
2023/05/13 03:19:52;;;;;;;0.90;0.55;;;13.10;99.90;;;;;;4913014;29;20234;-71
2023/05/13 03:22:21;;;;;;;0.60;0.50;;;13.10;99.90;;;;;;4909167;29;20283;-71
2023/05/13 03:24:49;;;;;;;0.68;0.63;;;13.00;99.90;;;;;;4907564;29;20804;-71
2023/05/13 03:27:17;;;;;;;0.85;0.85;;;13.10;99.90;;;;;;4912468;29;20271;-72
2023/05/13 03:29:44;;;;;;;0.60;0.50;;;13.00;99.90;;;;;;4912346;29;20324;-71
2023/05/13 03:32:12;;;;;;;0.70;0.70;;;13.10;99.90;;;;;;4907650;29;20221;-71
2023/05/13 03:34:40;;;;;;;0.60;0.60;;;13.00;99.90;;;;;;4915285;29;20240;-70
2023/05/13 03:37:08;;;;;;;0.70;0.50;;;13.00;99.90;;;;;;4915137;29;20311;-72
2023/05/13 03:39:38;;;;;;;1.00;0.77;;;12.90;99.90;;;;;;4912849;29;20260;-72
2023/05/13 03:42:06;;;;;;;0.50;0.40;;;12.90;99.90;;;;;;4914754;29;20752;-74
2023/05/13 03:44:34;;;;;;;0.70;0.50;;;12.90;99.90;;;;;;4910283;29;20233;-73
2023/05/13 03:47:02;;;;;;;1.00;0.60;;;12.90;99.90;;;;;;4910670;29;20244;-73
2023/05/13 03:49:30;;;;;;;0.70;0.70;;;12.90;99.90;;;;;;4912588;29;20570;-73
2023/05/13 03:51:58;;;;;;;0.50;0.40;;;12.90;99.90;;;;;;4914203;29;20287;-73
2023/05/13 03:54:26;;;;;;;0.60;0.50;;;12.90;99.90;;;;;;4913160;29;20268;-72
2023/05/13 03:56:55;;;;;;;0.73;0.55;;;12.90;99.90;;;;;;4911572;29;20267;-73
2023/05/13 03:59:23;;;;;;;1.23;0.82;;;12.90;99.90;;;;;;4914042;29;20236;-72
2023/05/13 04:01:51;;;;;;;0.70;0.52;;;12.90;99.90;;;;;;4915418;29;20651;-73
2023/05/13 04:04:19;;;;;;;0.73;0.63;;;12.80;99.90;;;;;;4912067;29;20239;-72
2023/05/13 04:06:47;;;;;;;0.90;0.88;;;12.90;99.90;;;;;;4907492;29;20243;-71
2023/05/13 04:09:15;;;;;;;0.70;0.70;;;12.80;99.90;;;;;;4911279;29;20763;-72
2023/05/13 04:11:43;;;;;;;0.60;0.50;;;12.90;99.90;;;;;;4910498;29;20236;-72
2023/05/13 04:14:12;;;;;;;0.80;0.73;;;12.90;99.90;;;;;;4908698;29;20321;-72
2023/05/13 04:16:40;;;;;;;0.75;0.73;;;12.90;99.90;;;;;;4911357;29;20320;-71
2023/05/13 04:19:08;;;;;;;1.17;0.93;;;12.80;99.90;;;;;;4913648;29;20209;-72
2023/05/13 04:21:36;;;;;;;0.82;0.52;;;12.80;99.90;;;;;;4910112;29;20215;-72
2023/05/13 04:24:05;;;;;;;0.98;0.98;;;12.80;99.90;;;;;;4913832;29;20256;-71
2023/05/13 04:26:33;;;;;;;0.80;0.75;;;12.70;99.90;;;;;;4911763;29;20232;-73
2023/05/13 04:29:00;;;;;;;0.98;0.70;;;12.80;99.90;;;;;;4911257;29;20208;-71
2023/05/13 04:31:30;;;;;;;0.60;0.60;;;12.80;99.90;;;;;;4911655;29;20299;-71
2023/05/13 04:33:57;;;;;;;0.60;0.50;;;12.80;99.90;;;;;;4910470;29;20719;-71
2023/05/13 04:36:25;;;;;;;0.60;0.52;;;12.90;99.90;;;;;;4910258;29;20302;-71
2023/05/13 04:38:54;;;;;;;0.60;0.57;;;12.90;99.90;;;;;;4912513;29;20291;-71
2023/05/13 04:41:22;;;;;;;0.70;0.40;;;13.00;99.90;;;;;;4910804;29;20212;-71
2023/05/13 04:43:49;;;;;;;0.63;0.50;;;13.00;99.90;;;;;;4911753;29;20652;-72
2023/05/13 04:46:17;;;;;;;0.75;0.60;;;13.00;99.90;;;;;;4912914;29;20243;-71
2023/05/13 04:48:47;;;;;;;0.60;0.50;;;13.00;99.90;;;;;;4911975;29;20223;-71
2023/05/13 04:51:15;;;;;;;0.60;0.50;;;13.20;99.90;;;;;;4912118;29;20274;-71
2023/05/13 04:53:44;;;;;;;0.60;0.40;;;13.20;99.90;;;;;;4911576;29;20228;-73
2023/05/13 04:56:12;;;;;;;0.80;0.70;;;13.30;99.90;;;;;;4909350;29;20254;-72
2023/05/13 04:58:40;;;;;;;0.98;0.88;;;13.30;99.90;;;;;;4910032;29;20258;-72
2023/05/13 05:01:08;;;;;;;0.57;0.45;;;13.30;99.90;;;;;;4910198;29;20622;-72
2023/05/13 05:03:35;;;;;;;0.65;0.65;;;13.40;99.90;;;;;;4908324;29;20274;-71
2023/05/13 05:06:05;;;;;;;0.75;0.68;;;13.40;99.90;;;;;;4911520;29;20228;-70
2023/05/13 05:08:33;;;;;;;0.70;0.50;;;13.40;99.90;;;;;;4912870;29;20260;-70
2023/05/13 05:11:01;;;;;;;0.60;0.50;;;13.50;99.90;;;;;;4915021;29;20246;-70
2023/05/13 05:13:29;;;;;;;0.70;0.50;;;13.60;99.90;;;;;;4914553;29;20672;-71
2023/05/13 05:15:57;;;;;;;0.60;0.52;;;13.70;99.90;;;;;;4913268;29;20795;-72
2023/05/13 05:18:25;;;;;;;0.50;0.40;;;13.70;99.90;;;;;;4914017;29;20212;-72
2023/05/13 05:20:52;;;;;;;0.85;0.85;;;13.60;99.90;;;;;;4915079;29;20271;-71
2023/05/13 05:23:22;;;;;;;0.60;0.60;;;13.70;99.90;;;;;;4913491;29;20586;-72
2023/05/13 05:25:50;;;;;;;0.80;0.50;;;13.80;99.90;;;;;;4913479;29;20283;-72
2023/05/13 05:28:31;;;;;;;0.70;0.50;;;13.90;99.90;;;;;;4915129;29;20240;-72
2023/05/13 05:31:00;;;;;;;0.60;0.50;;;14.00;99.90;;;;;;4912621;29;20264;-72
2023/05/13 05:33:28;;;;;;;0.60;0.43;;;14.10;99.90;;;;;;4912482;29;20286;-72
2023/05/13 05:35:56;;;;;;;0.60;0.50;;;14.20;99.90;;;;;;4916498;29;20314;-71
2023/05/13 05:38:25;;;;;;;1.00;0.95;;;14.30;99.90;;;;;;4914111;29;20677;-71
2023/05/13 05:40:53;;;;;;;0.60;0.50;;;14.30;99.90;;;;;;4914333;29;20228;-72
2023/05/13 05:43:21;;;;;;;0.60;0.40;;;14.30;99.90;;;;;;4913176;29;20291;-72
2023/05/13 05:45:49;;;;;;;0.70;0.60;;;14.30;99.90;;;;;;4912803;29;20242;-72
2023/05/13 05:48:17;;;;;;;0.93;0.82;;;14.30;99.90;;;;;;4914749;29;20622;-69
2023/05/13 05:50:44;;;;;;;0.93;0.57;;;14.30;99.90;;;;;;4913743;29;20747;-69
2023/05/13 05:53:12;;;;;;;0.60;0.60;;;14.20;99.90;;;;;;4905477;29;20205;-69
2023/05/13 05:55:42;;;;;;;1.10;0.55;;;14.30;99.90;;;;;;4913629;29;20260;-69
2023/05/13 05:58:15;;;;;;;0.90;0.77;;;14.40;99.90;;;;;;4912300;29;20291;-70
2023/05/13 06:00:43;;;;;;;0.60;0.50;;;14.50;99.90;;;;;;4910513;29;20272;-70
2023/05/13 06:03:11;;;;;;;0.60;0.50;;;14.50;99.90;;;;;;4912634;29;20232;-70
2023/05/13 06:05:39;;;;;;;0.90;0.65;;;14.60;99.90;;;;;;4909308;29;20319;-70
2023/05/13 06:08:07;;;;;;;0.63;0.50;;;14.70;99.90;;;;;;4914716;29;20739;-71
2023/05/13 06:10:35;;;;;;;0.60;0.55;;;14.80;99.90;;;;;;4916358;29;20752;-70
2023/05/13 06:13:04;;;;;;;0.70;0.60;;;14.90;99.90;;;;;;4916622;29;20664;-69
2023/05/13 06:15:32;;;;;;;0.50;0.30;;;14.90;99.90;;;;;;4916260;29;20791;-71
2023/05/13 06:18:03;;;;;;;0.77;0.77;;;15.00;99.90;;;;;;4908692;29;20220;-71
2023/05/13 06:20:31;;;;;;;1.60;0.68;;;15.10;99.90;;;;;;4911148;29;20200;-72
2023/05/13 06:22:59;;;;;;;0.70;0.50;;;15.10;99.90;;;;;;4915388;29;20627;-72
2023/05/13 06:25:27;;;;;;;0.70;0.70;;;15.20;99.90;;;;;;4910320;29;20258;-72
2023/05/13 06:27:55;;;;;;;1.33;0.60;;;15.30;99.90;;;;;;4911339;29;20209;-70
2023/05/13 06:30:25;;;;;;;0.65;0.45;;;15.30;99.90;;;;;;4911219;29;20205;-69
2023/05/13 06:32:53;;;;;;;0.80;0.50;;;15.40;99.90;;;;;;4906799;29;20680;-69
2023/05/13 06:35:29;;;;;;;0.70;0.60;;;15.40;99.90;;;;;;4911289;29;20263;-69
2023/05/13 06:37:57;;;;;;;0.63;0.50;;;15.50;99.90;;;;;;4912688;29;20213;-69
2023/05/13 06:40:25;;;;;;;0.63;0.63;;;15.60;99.90;;;;;;4910005;29;20292;-69
2023/05/13 06:42:52;;;;;;;0.50;0.40;;;15.50;99.90;;;;;;4912139;29;20629;-69
2023/05/13 06:45:22;;;;;;;0.60;0.50;;;15.50;99.90;;;;;;4907117;29;20232;-69
2023/05/13 06:47:53;;;;;;;0.70;0.50;;;15.60;99.90;;;;;;4912212;29;20608;-72
2023/05/13 06:50:20;;;;;;;1.25;1.15;;;15.80;99.90;;;;;;4911467;29;20248;-72
2023/05/13 06:52:49;;;;;;;0.60;0.50;;;16.00;99.90;;;;;;4913100;29;20216;-72
2023/05/13 06:55:17;;;;;;;1.10;1.00;;;16.10;99.90;;;;;;4910351;29;20224;-72
2023/05/13 06:57:46;;;;;;;0.50;0.40;;;16.30;99.90;;;;;;4910272;29;20671;-72
2023/05/13 07:00:15;;;;;;;0.60;0.50;;;16.50;99.90;;;;;;4913236;29;20228;-71
2023/05/13 07:02:43;;;;;;;0.65;0.47;;;16.80;99.90;;;;;;4911964;29;20668;-72
2023/05/13 07:05:12;;;;;;;1.13;0.60;;;16.80;99.90;;;;;;4909273;29;20241;-72
2023/05/13 07:07:42;;;;;;;0.60;0.50;;;16.80;99.90;;;;;;4909071;29;20299;-72
2023/05/13 07:10:10;;;;;;;0.65;0.55;;;16.80;99.90;;;;;;4908919;29;20205;-72
2023/05/13 07:12:38;;;;;;;0.60;0.40;;;17.00;99.90;;;;;;4911286;29;20252;-72
2023/05/13 07:15:08;;;;;;;0.60;0.40;;;17.20;99.90;;;;;;4908873;29;20440;-72
2023/05/13 07:17:41;;;;;;;0.60;0.50;;;17.20;99.90;;;;;;4908394;29;20283;-70
2023/05/13 07:20:10;;;;;;;0.50;0.40;;;17.00;99.90;;;;;;4913320;29;20219;-70
2023/05/13 07:22:39;;;;;;;0.70;0.70;;;16.80;99.90;;;;;;4911671;29;20604;-70
2023/05/13 07:25:08;;;;;;;0.60;0.50;;;17.00;99.90;;;;;;4910424;29;20299;-70
2023/05/13 07:27:36;;;;;;;0.70;0.70;;;17.10;99.90;;;;;;4911543;29;20224;-70
2023/05/13 07:30:05;;;;;;;0.60;0.40;;;17.20;99.90;;;;;;4905848;29;20208;-69
2023/05/13 07:32:34;;;;;;;0.70;0.60;;;17.20;99.90;;;;;;4912764;29;20210;-70
2023/05/13 07:35:02;;;;;;;0.70;0.50;;;17.30;99.90;;;;;;4911234;29;20212;-69
2023/05/13 07:37:30;;;;;;;0.60;0.50;;;17.30;99.90;;;;;;4910178;29;20212;-70
2023/05/13 07:39:59;;;;;;;0.50;0.40;;;17.30;99.90;;;;;;4905245;29;20851;-70
2023/05/13 07:42:28;;;;;;;0.60;0.40;;;17.30;99.90;;;;;;4902091;29;20875;-70
2023/05/13 07:44:56;;;;;;;1.25;0.90;;;17.40;99.90;;;;;;4908563;29;20268;-70
2023/05/13 07:47:26;;;;;;;0.60;0.40;;;17.60;99.90;;;;;;4911734;29;20263;-71
2023/05/13 07:49:54;;;;;;;0.50;0.40;;;17.80;99.90;;;;;;4906659;29;20236;-71
2023/05/13 07:52:22;;;;;;;0.60;0.40;;;17.90;99.90;;;;;;4911788;29;20216;-70
2023/05/13 07:54:50;;;;;;;0.70;0.50;;;18.00;99.90;;;;;;4911274;29;20217;-70
2023/05/13 07:57:19;;;;;;;0.57;0.43;;;18.10;99.90;;;;;;4907610;29;20280;-70
2023/05/13 07:59:47;;;;;;;0.65;0.50;;;18.20;99.90;;;;;;4909777;29;20343;-70
2023/05/13 08:02:15;;;;;;;0.60;0.50;;;18.30;99.90;;;;;;4911900;29;20288;-70
2023/05/13 08:04:43;;;;;;;0.60;0.40;;;18.30;99.90;;;;;;4909287;29;20688;-70
2023/05/13 08:07:11;;;;;;;0.60;0.52;;;18.50;99.90;;;;;;4910044;29;20691;-70
2023/05/13 08:09:39;;;;;;;0.65;0.65;;;18.70;99.90;;;;;;4914550;29;20224;-70
2023/05/13 08:12:07;;;;;;;0.70;0.60;;;18.70;99.90;;;;;;4914161;29;20214;-70
2023/05/13 08:14:37;;;;;;;0.60;0.50;;;18.90;99.90;;;;;;4914682;29;20253;-70
2023/05/13 08:17:06;;;;;;;0.60;0.47;;;18.80;99.90;;;;;;4914849;29;20308;-70
2023/05/13 08:19:36;;;;;;;2.13;0.45;;;18.70;99.90;;;;;;4914355;29;20295;-68
2023/05/13 08:22:04;;;;;;;0.70;0.63;;;18.70;99.90;;;;;;4914146;29;20232;-70
2023/05/13 08:24:32;;;;;;;0.60;0.50;;;18.30;99.90;;;;;;4913468;29;20214;-71
2023/05/13 08:27:00;;;;;;;0.60;0.40;;;18.30;99.90;;;;;;4914552;29;20771;-71
2023/05/13 08:29:28;;;;;;;0.60;0.50;;;18.10;99.90;;;;;;4908137;29;20287;-71
2023/05/13 08:31:57;;;;;;;0.65;0.50;;;17.90;99.90;;;;;;4911652;29;20209;-70
2023/05/13 08:34:25;;;;;;;0.65;0.50;;;17.80;99.90;;;;;;4913305;29;20208;-70
2023/05/13 08:36:53;;;;;;;0.90;0.52;;;17.80;99.90;;;;;;4913819;29;20276;-70
2023/05/13 08:39:21;;;;;;;0.73;0.70;;;18.00;99.90;;;;;;4914333;29;20291;-71
2023/05/13 08:41:51;;;;;;;1.17;0.70;;;18.00;99.90;;;;;;4916872;29;20204;-70
2023/05/13 08:44:20;;;;;;;0.60;0.40;;;17.90;99.90;;;;;;4918523;29;20647;-70
2023/05/13 08:46:54;;;;;;;0.63;0.50;;;18.00;99.90;;;;;;4917535;29;20315;-69
2023/05/13 08:49:24;;;;;;;0.60;0.50;;;18.00;99.90;;;;;;4918167;29;20295;-70
2023/05/13 08:51:52;;;;;;;0.60;0.40;;;18.00;99.90;;;;;;4917994;29;20236;-70
2023/05/13 08:54:21;;;;;;;0.77;0.60;;;18.00;99.90;;;;;;4918038;29;20212;-71
2023/05/13 08:56:51;;;;;;;1.05;0.73;;;18.10;99.90;;;;;;4910975;29;20310;-70
2023/05/13 08:59:19;;;;;;;1.20;0.85;;;18.50;99.90;;;;;;4918029;29;20582;-70
2023/05/13 09:01:48;;;;;;;0.65;0.52;;;19.00;99.90;;;;;;4910232;29;20678;-70
2023/05/13 09:04:18;;;;;;;0.60;0.55;;;19.50;99.90;;;;;;4910495;29;20232;-70
2023/05/13 09:06:48;;;;;;;0.77;0.70;;;19.90;99.90;;;;;;4909059;29;20351;-70
2023/05/13 09:09:16;;;;;;;0.70;0.65;;;20.20;99.90;;;;;;4917814;29;20284;-70
2023/05/13 09:11:47;;;;;;;1.35;0.68;;;20.30;99.90;;;;;;4917503;29;20224;-70
2023/05/13 09:14:19;;;;;;;0.70;0.40;;;20.40;99.90;;;;;;4917693;29;20667;-70
2023/05/13 09:16:47;;;;;;;0.60;0.50;;;20.70;99.90;;;;;;4910109;29;20263;-70
2023/05/13 09:19:15;;;;;;;0.65;0.45;;;20.90;99.90;;;;;;4916922;29;20240;-70
2023/05/13 09:21:44;;;;;;;0.75;0.50;;;21.10;99.90;;;;;;4917359;29;20627;-70
2023/05/13 09:24:17;;;;;;;0.55;0.40;;;20.80;99.90;;;;;;4917816;29;20296;-70
2023/05/13 09:26:45;;;;;;;0.60;0.40;;;20.80;99.90;;;;;;4909780;29;20281;-70
2023/05/13 09:29:21;;;;;;;0.60;0.50;;;20.70;99.90;;;;;;4917445;29;20204;-70
2023/05/13 09:31:51;;;;;;;0.60;0.47;;;20.80;99.90;;;;;;4917365;29;20256;-70
2023/05/13 09:34:28;;;;;;;0.93;0.60;;;20.70;99.90;;;;;;4917611;29;20216;-70
2023/05/13 09:36:58;;;;;;;0.73;0.65;;;20.90;99.90;;;;;;4917577;29;20224;-70
2023/05/13 09:39:27;;;;;;;0.60;0.50;;;21.20;99.90;;;;;;4917081;29;20217;-70
2023/05/13 09:41:55;;;;;;;0.50;0.40;;;21.10;99.90;;;;;;4917166;29;20318;-70
2023/05/13 09:44:24;;;;;;;0.65;0.63;;;21.10;99.90;;;;;;4916825;29;20709;-70
2023/05/13 09:46:53;;;;;;;0.60;0.50;;;21.40;99.90;;;;;;4916146;29;20767;-70
2023/05/13 09:49:23;;;;;;;0.68;0.63;;;21.80;99.90;;;;;;4916779;29;20680;-70
2023/05/13 09:51:51;;;;;;;0.98;0.60;;;21.90;99.90;;;;;;4916895;29;20206;-70
2023/05/13 09:54:19;;;;;;;0.70;0.50;;;22.10;99.90;;;;;;4901840;29;20216;-70
2023/05/13 09:56:48;;;;;;;0.90;0.63;;;22.30;99.90;;;;;;4909766;29;20225;-70
2023/05/13 09:59:16;;;;;;;0.80;0.65;;;22.50;99.90;;;;;;4915433;29;20237;-70
2023/05/13 10:01:46;;;;;;;1.13;0.65;;;22.30;99.90;;;;;;4916495;29;20618;-70
2023/05/13 10:04:14;;;;;;;0.60;0.60;;;22.10;99.90;;;;;;4917028;29;20209;-70
2023/05/13 10:06:42;;;;;;;0.60;0.40;;;22.10;99.90;;;;;;4916666;29;20315;-70
2023/05/13 10:09:11;;;;;;;1.08;0.77;;;22.10;99.90;;;;;;4916847;29;20300;-70
2023/05/13 10:11:40;;;;;;;0.60;0.50;;;22.20;99.90;;;;;;4916374;29;20252;-70
2023/05/13 10:14:09;;;;;;;0.60;0.40;;;21.90;99.90;;;;;;4916575;29;20270;-70
2023/05/13 10:16:38;;;;;;;0.70;0.55;;;22.10;99.90;;;;;;4916541;29;20324;-70
2023/05/13 10:19:06;;;;;;;0.60;0.50;;;22.20;99.90;;;;;;4916648;29;20228;-69
2023/05/13 10:21:35;;;;;;;0.60;0.60;;;22.40;99.90;;;;;;4914290;29;20205;-70
2023/05/13 10:24:04;;;;;;;0.80;0.50;;;22.50;99.90;;;;;;4916544;29;20228;-70
2023/05/13 10:26:33;;;;;;;0.93;0.80;;;22.60;99.90;;;;;;4916669;29;20221;-70
2023/05/13 10:29:02;;;;;;;0.60;0.40;;;22.60;99.90;;;;;;4916452;29;20245;-70
2023/05/13 10:31:31;;;;;;;0.60;0.45;;;22.50;99.90;;;;;;4914894;29;20706;-70
2023/05/13 10:33:59;;;;;;;0.60;0.47;;;22.50;99.90;;;;;;4915212;29;20216;-70
2023/05/13 10:36:44;;;;;;;0.70;0.70;;;22.60;99.90;;;;;;4915875;29;20256;-70
2023/05/13 10:39:27;;;;;;;0.70;0.55;;;22.30;99.90;;;;;;4916349;29;20215;-70
2023/05/13 10:42:29;;;;;;;0.68;0.60;;;21.90;99.90;;;;;;4916035;29;20292;-70
2023/05/13 10:44:58;;;;;;;1.50;0.88;;;21.70;99.90;;;;;;4909802;29;20290;-70
2023/05/13 10:47:30;;;;;;;0.70;0.60;;;21.90;99.90;;;;;;4915673;29;20681;-71
2023/05/13 10:50:03;;;;;;;0.73;0.63;;;22.20;99.90;;;;;;4916180;29;20216;-69
2023/05/13 10:52:43;;;;;;;0.77;0.50;;;22.50;99.90;;;;;;4915790;29;20247;-70
2023/05/13 10:55:21;;;;;;;0.70;0.63;;;22.50;99.90;;;;;;4916201;29;20681;-70
2023/05/13 10:58:09;;;;;;;0.70;0.50;;;22.70;99.90;;;;;;4916244;29;20204;-70
2023/05/13 11:00:38;;;;;;;0.60;0.50;;;22.90;99.90;;;;;;4915307;29;20297;-69
2023/05/13 11:03:15;;;;;;;0.77;0.70;;;22.90;99.90;;;;;;4915951;29;20619;-70
2023/05/13 11:05:58;;;;;;;0.75;0.70;;;23.00;99.90;;;;;;4915613;29;20704;-70
2023/05/13 11:08:39;;;;;;;0.75;0.70;;;23.20;99.90;;;;;;4907280;29;20334;-70
2023/05/13 11:11:18;;;;;;;1.45;0.80;;;23.60;99.90;;;;;;4910721;29;20237;-70
2023/05/13 11:13:46;;;;;;;0.60;0.50;;;24.00;99.90;;;;;;4908364;29;20743;-70
2023/05/13 11:16:14;;;;;;;0.60;0.43;;;24.30;99.90;;;;;;4915620;29;20236;-70
2023/05/13 11:18:44;;;;;;;6.70;0.77;;;24.40;99.20;;;;;;4915748;29;20748;-69
2023/05/13 11:21:12;;;;;;;0.88;0.77;;;23.90;98.00;;;;;;4915325;29;20242;-70
2023/05/13 11:23:55;;;;;;;0.60;0.50;;;23.90;98.30;;;;;;4915332;29;20237;-69
2023/05/13 11:26:23;;;;;;;0.60;0.50;;;23.80;98.30;;;;;;4915636;29;20276;-70
2023/05/13 11:28:56;;;;;;;0.70;0.65;;;23.70;98.60;;;;;;4915664;29;20316;-70
2023/05/13 11:31:26;;;;;;;0.60;0.60;;;23.00;97.60;;;;;;4914846;29;20236;-70
2023/05/13 11:34:11;;;;;;;0.60;0.50;;;22.90;97.90;;;;;;4915309;29;20212;-70
2023/05/13 11:36:41;;;;;;;0.63;0.45;;;22.70;99.10;;;;;;4915216;29;20264;-70
2023/05/13 11:39:12;;;;;;;0.60;0.50;;;22.10;99.20;;;;;;4901458;29;20237;-70
2023/05/13 11:41:42;;;;;;;0.80;0.63;;;21.70;99.80;;;;;;4914368;29;20334;-70
2023/05/13 11:44:12;;;;;;;0.60;0.50;;;21.20;99.90;;;;;;4915270;29;20235;-69
2023/05/13 11:46:50;;;;;;;0.60;0.47;;;20.90;99.90;;;;;;4914601;29;20240;-69
2023/05/13 11:49:37;;;;;;;0.85;0.85;;;20.60;99.90;;;;;;4900145;29;20325;-70
2023/05/13 11:52:08;;;;;;;0.60;0.50;;;20.50;99.90;;;;;;4903904;29;20603;-70
2023/05/13 11:54:44;;;;;;;0.70;0.57;;;20.50;99.90;;;;;;4905923;29;20287;-69
2023/05/13 11:57:19;;;;;;;0.60;0.50;;;20.50;99.90;;;;;;4915303;29;20236;-69
2023/05/13 11:59:54;;;;;;;1.15;0.60;;;20.50;99.90;;;;;;4908542;29;20266;-70
2023/05/13 12:02:23;;;;;;;0.90;0.80;;;20.50;99.90;;;;;;4913274;29;20260;-70
2023/05/13 12:04:52;;;;;;;0.93;0.70;;;20.80;99.90;;;;;;4911096;29;20247;-70
2023/05/13 12:07:22;;;;;;;4.90;0.90;;;21.00;99.90;;;;;;4908283;29;20209;-70
2023/05/13 12:09:51;;;;;;;0.70;0.50;;;21.20;99.90;;;;;;4906015;29;20223;-70
2023/05/13 12:12:20;;;;;;;0.80;0.70;;;21.10;99.90;;;;;;4905899;29;20209;-70
2023/05/13 12:14:49;;;;;;;0.65;0.47;;;21.20;99.90;;;;;;4908100;29;20220;-70
2023/05/13 12:17:18;;;;;;;0.70;0.57;;;21.30;99.90;;;;;;4908094;29;20726;-70
2023/05/13 12:20:10;;;;;;;0.60;0.50;;;21.40;99.90;;;;;;4906888;29;20284;-70
2023/05/13 12:22:51;;;;;;;0.60;0.43;;;21.40;99.90;;;;;;4908917;29;20307;-69
2023/05/13 12:25:40;;;;;;;0.82;0.60;;;21.20;99.90;;;;;;4910083;29;20287;-70
2023/05/13 12:28:10;;;;;;;0.70;0.55;;;20.90;99.90;;;;;;4907446;29;20291;-69
2023/05/13 12:30:40;;;;;;;0.60;0.60;;;20.70;99.90;;;;;;4906250;29;20267;-69
2023/05/13 12:33:13;;;;;;;0.68;0.50;;;20.60;99.90;;;;;;4910936;29;20205;-69
2023/05/13 12:35:43;;;;;;;0.70;0.50;;;20.60;99.90;;;;;;4907266;29;20234;-70
2023/05/13 12:38:16;;;;;;;0.80;0.80;;;20.60;99.90;;;;;;4910072;29;20634;-70
2023/05/13 12:40:44;;;;;;;1.45;1.20;;;20.70;99.90;;;;;;4909356;29;20299;-70
2023/05/13 12:43:13;;;;;;;0.60;0.57;;;20.70;99.90;;;;;;4911756;29;20585;-70
2023/05/13 12:45:45;;;;;;;1.00;0.80;;;20.70;99.90;;;;;;4907515;29;20731;-70
2023/05/13 12:48:13;;;;;;;0.60;0.57;;;20.70;99.90;;;;;;4910449;29;20310;-70
2023/05/13 12:50:42;;;;;;;0.70;0.50;;;20.60;99.90;;;;;;4908711;29;20220;-69
2023/05/13 12:53:10;;;;;;;0.75;0.52;;;20.50;99.90;;;;;;4908112;29;20216;-70
2023/05/13 12:55:38;;;;;;;0.75;0.60;;;20.40;99.90;;;;;;4908476;29;20307;-71
2023/05/13 12:58:09;;;;;;;0.82;0.60;;;20.70;99.90;;;;;;4911120;29;20237;-70
2023/05/13 13:00:37;;;;;;;0.60;0.50;;;20.90;99.90;;;;;;4906569;29;20209;-70